sensor_id;sensor_type;location;lat;lon;timestamp;temperature;humidity
38604;DHT22;24924;50.054;8.790;2024-03-23T00:56:01;8.30;99.90
38604;DHT22;24924;50.054;8.790;2024-03-23T00:58:49;8.40;99.90
38604;DHT22;24924;50.054;8.790;2024-03-23T01:01:36;8.50;99.90
38604;DHT22;24924;50.054;8.790;2024-03-23T01:04:22;8.60;99.90
38604;DHT22;24924;50.054;8.790;2024-03-23T01:07:08;8.60;99.90
38604;DHT22;24924;50.054;8.790;2024-03-23T01:09:54;8.60;99.90
38604;DHT22;24924;50.054;8.790;2024-03-23T01:12:40;8.70;99.90
38604;DHT22;24924;50.054;8.790;2024-03-23T01:15:26;8.80;99.90
38604;DHT22;24924;50.054;8.790;2024-03-23T01:18:13;9.00;99.90
38604;DHT22;24924;50.054;8.790;2024-03-23T01:20:59;8.90;99.90
38604;DHT22;24924;50.054;8.790;2024-03-23T01:23:45;8.90;99.90
38604;DHT22;24924;50.054;8.790;2024-03-23T01:26:31;9.00;99.90
38604;DHT22;24924;50.054;8.790;2024-03-23T01:29:18;9.10;99.90
38604;DHT22;24924;50.054;8.790;2024-03-23T01:32:04;9.10;99.90
38604;DHT22;24924;50.054;8.790;2024-03-23T01:34:51;9.00;99.90
38604;DHT22;24924;50.054;8.790;2024-03-23T01:37:37;9.00;99.90
38604;DHT22;24924;50.054;8.790;2024-03-23T01:40:23;9.00;99.90
38604;DHT22;24924;50.054;8.790;2024-03-23T01:43:09;8.90;99.90
38604;DHT22;24924;50.054;8.790;2024-03-23T01:45:55;9.00;99.90
38604;DHT22;24924;50.054;8.790;2024-03-23T01:48:42;9.10;99.90
38604;DHT22;24924;50.054;8.790;2024-03-23T01:51:29;9.00;99.90
38604;DHT22;24924;50.054;8.790;2024-03-23T01:54:15;9.00;99.90
38604;DHT22;24924;50.054;8.790;2024-03-23T01:57:01;9.00;99.90
38604;DHT22;24924;50.054;8.790;2024-03-23T01:59:48;9.00;99.90
38604;DHT22;24924;50.054;8.790;2024-03-23T02:02:46;9.00;99.90
38604;DHT22;24924;50.054;8.790;2024-03-23T02:05:32;9.20;99.90
38604;DHT22;24924;50.054;8.790;2024-03-23T02:08:20;9.40;99.90
38604;DHT22;24924;50.054;8.790;2024-03-23T02:11:07;9.30;99.90
38604;DHT22;24924;50.054;8.790;2024-03-23T02:13:53;9.30;99.90
38604;DHT22;24924;50.054;8.790;2024-03-23T02:16:39;9.40;99.90
38604;DHT22;24924;50.054;8.790;2024-03-23T02:19:25;9.40;99.90
38604;DHT22;24924;50.054;8.790;2024-03-23T02:22:11;9.40;99.90
38604;DHT22;24924;50.054;8.790;2024-03-23T02:24:58;9.40;99.90
38604;DHT22;24924;50.054;8.790;2024-03-23T02:27:43;9.30;99.90
38604;DHT22;24924;50.054;8.790;2024-03-23T02:30:30;9.40;99.90
38604;DHT22;24924;50.054;8.790;2024-03-23T02:33:16;9.60;99.90
38604;DHT22;24924;50.054;8.790;2024-03-23T02:36:03;9.50;99.90
38604;DHT22;24924;50.054;8.790;2024-03-23T02:38:49;9.40;99.90
38604;DHT22;24924;50.054;8.790;2024-03-23T02:41:36;9.30;99.90
38604;DHT22;24924;50.054;8.790;2024-03-23T02:44:22;9.50;99.90
38604;DHT22;24924;50.054;8.790;2024-03-23T02:47:08;9.50;99.90
38604;DHT22;24924;50.054;8.790;2024-03-23T02:49:55;9.40;99.90
38604;DHT22;24924;50.054;8.790;2024-03-23T02:52:41;9.60;99.90
38604;DHT22;24924;50.054;8.790;2024-03-23T02:55:27;9.40;99.90
38604;DHT22;24924;50.054;8.790;2024-03-23T02:58:13;9.30;99.90
38604;DHT22;24924;50.054;8.790;2024-03-23T03:01:00;9.20;99.90
38604;DHT22;24924;50.054;8.790;2024-03-23T03:03:46;9.10;99.90
38604;DHT22;24924;50.054;8.790;2024-03-23T03:06:32;9.10;99.90
38604;DHT22;24924;50.054;8.790;2024-03-23T03:09:18;9.00;99.90
38604;DHT22;24924;50.054;8.790;2024-03-23T03:12:08;8.90;99.90
38604;DHT22;24924;50.054;8.790;2024-03-23T03:14:54;8.90;99.90
38604;DHT22;24924;50.054;8.790;2024-03-23T03:17:40;8.90;99.90
38604;DHT22;24924;50.054;8.790;2024-03-23T03:20:26;8.80;99.90
38604;DHT22;24924;50.054;8.790;2024-03-23T03:23:12;8.80;99.90
38604;DHT22;24924;50.054;8.790;2024-03-23T03:25:59;8.80;99.90
38604;DHT22;24924;50.054;8.790;2024-03-23T03:28:45;8.80;99.90
38604;DHT22;24924;50.054;8.790;2024-03-23T03:31:34;8.80;99.90
38604;DHT22;24924;50.054;8.790;2024-03-23T03:34:21;8.80;99.90
38604;DHT22;24924;50.054;8.790;2024-03-23T03:37:07;8.70;99.90
38604;DHT22;24924;50.054;8.790;2024-03-23T03:39:53;8.70;99.90
38604;DHT22;24924;50.054;8.790;2024-03-23T03:42:39;8.70;99.90
38604;DHT22;24924;50.054;8.790;2024-03-23T03:45:25;8.70;99.90
38604;DHT22;24924;50.054;8.790;2024-03-23T03:48:11;8.70;99.90
38604;DHT22;24924;50.054;8.790;2024-03-23T03:50:57;8.70;99.90
38604;DHT22;24924;50.054;8.790;2024-03-23T03:53:43;8.80;99.90
38604;DHT22;24924;50.054;8.790;2024-03-23T03:56:30;8.80;99.90
38604;DHT22;24924;50.054;8.790;2024-03-23T03:59:17;8.90;99.90
38604;DHT22;24924;50.054;8.790;2024-03-23T04:02:03;9.00;99.90
38604;DHT22;24924;50.054;8.790;2024-03-23T04:04:49;9.10;99.90
38604;DHT22;24924;50.054;8.790;2024-03-23T04:07:36;9.10;99.90
38604;DHT22;24924;50.054;8.790;2024-03-23T04:10:22;9.00;99.90
38604;DHT22;24924;50.054;8.790;2024-03-23T04:13:08;9.00;99.90
38604;DHT22;24924;50.054;8.790;2024-03-23T04:15:55;9.10;99.90
38604;DHT22;24924;50.054;8.790;2024-03-23T04:18:41;9.30;99.90
38604;DHT22;24924;50.054;8.790;2024-03-23T04:21:27;9.30;99.90
38604;DHT22;24924;50.054;8.790;2024-03-23T04:24:13;9.40;99.90
38604;DHT22;24924;50.054;8.790;2024-03-23T04:27:01;9.50;99.90
38604;DHT22;24924;50.054;8.790;2024-03-23T04:29:51;9.50;99.90
38604;DHT22;24924;50.054;8.790;2024-03-23T04:32:38;9.50;99.90
38604;DHT22;24924;50.054;8.790;2024-03-23T04:35:24;9.50;99.90
38604;DHT22;24924;50.054;8.790;2024-03-23T04:38:11;9.40;99.90
38604;DHT22;24924;50.054;8.790;2024-03-23T04:40:58;9.30;99.90
38604;DHT22;24924;50.054;8.790;2024-03-23T04:43:44;9.20;99.90
38604;DHT22;24924;50.054;8.790;2024-03-23T04:46:30;9.00;99.90
38604;DHT22;24924;50.054;8.790;2024-03-23T04:49:17;9.00;99.90
38604;DHT22;24924;50.054;8.790;2024-03-23T04:52:04;8.80;99.90
38604;DHT22;24924;50.054;8.790;2024-03-23T04:54:50;8.80;99.90
38604;DHT22;24924;50.054;8.790;2024-03-23T04:57:36;8.70;99.90
38604;DHT22;24924;50.054;8.790;2024-03-23T05:00:23;8.80;99.90
38604;DHT22;24924;50.054;8.790;2024-03-23T05:03:09;8.70;99.90
38604;DHT22;24924;50.054;8.790;2024-03-23T05:05:55;8.60;99.90
38604;DHT22;24924;50.054;8.790;2024-03-23T05:08:41;8.60;99.90
38604;DHT22;24924;50.054;8.790;2024-03-23T05:11:27;8.50;99.90
38604;DHT22;24924;50.054;8.790;2024-03-23T05:14:14;8.50;99.90
38604;DHT22;24924;50.054;8.790;2024-03-23T05:17:00;8.50;99.90
38604;DHT22;24924;50.054;8.790;2024-03-23T05:19:46;8.50;99.90
38604;DHT22;24924;50.054;8.790;2024-03-23T05:22:32;8.40;99.90
38604;DHT22;24924;50.054;8.790;2024-03-23T05:25:19;8.30;99.90
38604;DHT22;24924;50.054;8.790;2024-03-23T05:28:05;8.30;99.90
38604;DHT22;24924;50.054;8.790;2024-03-23T05:30:53;8.20;99.90
38604;DHT22;24924;50.054;8.790;2024-03-23T05:33:39;8.20;99.90
38604;DHT22;24924;50.054;8.790;2024-03-23T05:36:25;8.10;99.90
38604;DHT22;24924;50.054;8.790;2024-03-23T05:39:12;8.10;99.90
38604;DHT22;24924;50.054;8.790;2024-03-23T05:41:58;8.10;99.90
38604;DHT22;24924;50.054;8.790;2024-03-23T05:44:44;8.10;99.90
38604;DHT22;24924;50.054;8.790;2024-03-23T05:47:31;8.20;99.90
38604;DHT22;24924;50.054;8.790;2024-03-23T05:50:17;8.20;99.90
38604;DHT22;24924;50.054;8.790;2024-03-23T05:53:04;8.20;99.90
38604;DHT22;24924;50.054;8.790;2024-03-23T05:55:59;8.10;99.90
38604;DHT22;24924;50.054;8.790;2024-03-23T05:58:45;8.10;99.90
38604;DHT22;24924;50.054;8.790;2024-03-23T06:01:32;8.20;99.90
38604;DHT22;24924;50.054;8.790;2024-03-23T06:04:18;8.20;99.90
38604;DHT22;24924;50.054;8.790;2024-03-23T06:07:05;8.20;99.90
38604;DHT22;24924;50.054;8.790;2024-03-23T06:09:59;8.20;99.90
38604;DHT22;24924;50.054;8.790;2024-03-23T06:12:46;8.10;99.90
38604;DHT22;24924;50.054;8.790;2024-03-23T06:15:32;8.10;99.90
38604;DHT22;24924;50.054;8.790;2024-03-23T06:18:18;8.10;99.90
38604;DHT22;24924;50.054;8.790;2024-03-23T06:21:05;8.10;99.90
38604;DHT22;24924;50.054;8.790;2024-03-23T06:23:54;8.20;99.90
38604;DHT22;24924;50.054;8.790;2024-03-23T06:26:40;8.20;99.90
38604;DHT22;24924;50.054;8.790;2024-03-23T06:29:26;8.20;99.90
38604;DHT22;24924;50.054;8.790;2024-03-23T06:32:13;8.30;99.90
38604;DHT22;24924;50.054;8.790;2024-03-23T06:34:58;8.40;99.90
38604;DHT22;24924;50.054;8.790;2024-03-23T06:37:45;8.30;99.90
38604;DHT22;24924;50.054;8.790;2024-03-23T06:40:31;8.30;99.90
38604;DHT22;24924;50.054;8.790;2024-03-23T06:43:17;8.40;99.90
38604;DHT22;24924;50.054;8.790;2024-03-23T06:46:03;8.40;99.90
38604;DHT22;24924;50.054;8.790;2024-03-23T06:48:50;8.40;99.90
38604;DHT22;24924;50.054;8.790;2024-03-23T06:51:37;8.30;99.90
38604;DHT22;24924;50.054;8.790;2024-03-23T06:54:26;8.30;99.90
38604;DHT22;24924;50.054;8.790;2024-03-23T06:57:12;8.30;99.90
38604;DHT22;24924;50.054;8.790;2024-03-23T06:59:58;8.30;99.90
38604;DHT22;24924;50.054;8.790;2024-03-23T07:02:44;8.30;99.90
38604;DHT22;24924;50.054;8.790;2024-03-23T07:05:30;8.30;99.90
38604;DHT22;24924;50.054;8.790;2024-03-23T07:08:17;8.30;99.90
38604;DHT22;24924;50.054;8.790;2024-03-23T07:11:07;8.30;99.90
38604;DHT22;24924;50.054;8.790;2024-03-23T07:13:53;8.30;99.90
38604;DHT22;24924;50.054;8.790;2024-03-23T07:16:40;8.20;99.90
38604;DHT22;24924;50.054;8.790;2024-03-23T07:19:26;8.20;99.90
38604;DHT22;24924;50.054;8.790;2024-03-23T07:22:14;8.10;99.90
38604;DHT22;24924;50.054;8.790;2024-03-23T07:25:01;8.10;99.90
38604;DHT22;24924;50.054;8.790;2024-03-23T07:27:47;8.00;99.90
38604;DHT22;24924;50.054;8.790;2024-03-23T07:30:33;8.00;99.90
38604;DHT22;24924;50.054;8.790;2024-03-23T07:33:20;7.90;99.90
38604;DHT22;24924;50.054;8.790;2024-03-23T07:36:06;7.80;99.90
38604;DHT22;24924;50.054;8.790;2024-03-23T07:38:52;7.70;99.90
38604;DHT22;24924;50.054;8.790;2024-03-23T07:41:39;8.00;99.90
38604;DHT22;24924;50.054;8.790;2024-03-23T07:44:25;7.70;99.90
38604;DHT22;24924;50.054;8.790;2024-03-23T07:47:11;7.80;99.90
38604;DHT22;24924;50.054;8.790;2024-03-23T07:49:58;7.90;99.90
38604;DHT22;24924;50.054;8.790;2024-03-23T07:52:45;8.10;99.90
38604;DHT22;24924;50.054;8.790;2024-03-23T07:55:31;8.30;99.90
38604;DHT22;24924;50.054;8.790;2024-03-23T07:58:17;8.30;99.90
38604;DHT22;24924;50.054;8.790;2024-03-23T08:01:11;8.40;99.90
38604;DHT22;24924;50.054;8.790;2024-03-23T08:03:57;8.40;99.90
38604;DHT22;24924;50.054;8.790;2024-03-23T08:06:43;8.40;99.90
38604;DHT22;24924;50.054;8.790;2024-03-23T08:09:29;8.40;99.90
38604;DHT22;24924;50.054;8.790;2024-03-23T08:12:15;8.30;99.90
38604;DHT22;24924;50.054;8.790;2024-03-23T08:15:02;8.50;99.90
38604;DHT22;24924;50.054;8.790;2024-03-23T08:17:48;8.80;99.90
38604;DHT22;24924;50.054;8.790;2024-03-23T08:20:34;9.00;99.90
38604;DHT22;24924;50.054;8.790;2024-03-23T08:23:21;9.00;99.90
38604;DHT22;24924;50.054;8.790;2024-03-23T08:26:09;9.00;99.90
38604;DHT22;24924;50.054;8.790;2024-03-23T08:28:55;8.60;99.90
38604;DHT22;24924;50.054;8.790;2024-03-23T08:31:41;8.70;99.90
38604;DHT22;24924;50.054;8.790;2024-03-23T08:34:27;8.60;99.90
38604;DHT22;24924;50.054;8.790;2024-03-23T08:37:13;8.70;99.90
38604;DHT22;24924;50.054;8.790;2024-03-23T08:39:59;9.50;99.90
38604;DHT22;24924;50.054;8.790;2024-03-23T08:42:46;11.40;99.90
38604;DHT22;24924;50.054;8.790;2024-03-23T08:45:32;12.00;99.90
38604;DHT22;24924;50.054;8.790;2024-03-23T08:48:21;11.10;99.90
38604;DHT22;24924;50.054;8.790;2024-03-23T08:51:09;10.60;99.90
38604;DHT22;24924;50.054;8.790;2024-03-23T08:53:55;10.00;99.90
38604;DHT22;24924;50.054;8.790;2024-03-23T08:56:41;9.80;99.90
38604;DHT22;24924;50.054;8.790;2024-03-23T08:59:27;10.50;99.90
38604;DHT22;24924;50.054;8.790;2024-03-23T09:02:13;11.50;99.90
38604;DHT22;24924;50.054;8.790;2024-03-23T09:04:59;12.50;99.90
38604;DHT22;24924;50.054;8.790;2024-03-23T09:07:50;12.50;99.90
38604;DHT22;24924;50.054;8.790;2024-03-23T09:10:39;12.00;99.90
38604;DHT22;24924;50.054;8.790;2024-03-23T09:13:25;12.00;99.90
38604;DHT22;24924;50.054;8.790;2024-03-23T09:16:11;11.60;99.90
38604;DHT22;24924;50.054;8.790;2024-03-23T09:18:57;11.30;99.90
38604;DHT22;24924;50.054;8.790;2024-03-23T09:21:44;10.80;99.90
38604;DHT22;24924;50.054;8.790;2024-03-23T09:24:30;10.90;99.90
38604;DHT22;24924;50.054;8.790;2024-03-23T09:27:17;10.70;99.90
38604;DHT22;24924;50.054;8.790;2024-03-23T09:30:04;10.40;99.90
38604;DHT22;24924;50.054;8.790;2024-03-23T09:32:50;10.40;99.90
38604;DHT22;24924;50.054;8.790;2024-03-23T09:35:40;10.30;99.90
38604;DHT22;24924;50.054;8.790;2024-03-23T09:38:27;10.50;99.90
38604;DHT22;24924;50.054;8.790;2024-03-23T09:41:13;11.20;99.90
38604;DHT22;24924;50.054;8.790;2024-03-23T09:44:01;11.50;99.90
38604;DHT22;24924;50.054;8.790;2024-03-23T09:46:48;11.00;99.90
38604;DHT22;24924;50.054;8.790;2024-03-23T09:49:34;10.90;99.90
38604;DHT22;24924;50.054;8.790;2024-03-23T09:52:22;11.00;99.90
38604;DHT22;24924;50.054;8.790;2024-03-23T09:55:09;11.40;99.90
38604;DHT22;24924;50.054;8.790;2024-03-23T09:57:55;11.60;99.90
38604;DHT22;24924;50.054;8.790;2024-03-23T10:00:41;11.20;99.90
38604;DHT22;24924;50.054;8.790;2024-03-23T10:03:27;10.70;99.90
38604;DHT22;24924;50.054;8.790;2024-03-23T10:06:14;10.60;99.90
38604;DHT22;24924;50.054;8.790;2024-03-23T10:09:00;10.10;99.90
38604;DHT22;24924;50.054;8.790;2024-03-23T10:11:46;10.00;99.90
38604;DHT22;24924;50.054;8.790;2024-03-23T10:14:34;10.00;99.90
38604;DHT22;24924;50.054;8.790;2024-03-23T10:17:22;10.10;99.90
38604;DHT22;24924;50.054;8.790;2024-03-23T10:20:10;10.40;99.90
38604;DHT22;24924;50.054;8.790;2024-03-23T10:22:57;10.60;99.90
38604;DHT22;24924;50.054;8.790;2024-03-23T10:25:44;11.20;99.90
38604;DHT22;24924;50.054;8.790;2024-03-23T10:28:30;11.60;99.70
38604;DHT22;24924;50.054;8.790;2024-03-23T10:31:16;11.70;99.70
38604;DHT22;24924;50.054;8.790;2024-03-23T10:34:05;11.70;99.50
38604;DHT22;24924;50.054;8.790;2024-03-23T10:36:53;11.80;98.90
38604;DHT22;24924;50.054;8.790;2024-03-23T10:39:40;11.40;98.90
38604;DHT22;24924;50.054;8.790;2024-03-23T10:42:26;10.80;99.80
38604;DHT22;24924;50.054;8.790;2024-03-23T10:45:12;10.40;99.90
38604;DHT22;24924;50.054;8.790;2024-03-23T10:47:58;10.30;99.90
38604;DHT22;24924;50.054;8.790;2024-03-23T10:50:45;10.00;99.90
38604;DHT22;24924;50.054;8.790;2024-03-23T10:53:33;9.90;99.90
38604;DHT22;24924;50.054;8.790;2024-03-23T10:56:19;9.80;99.90
38604;DHT22;24924;50.054;8.790;2024-03-23T10:59:06;10.40;99.90
38604;DHT22;24924;50.054;8.790;2024-03-23T11:01:55;11.20;99.90
38604;DHT22;24924;50.054;8.790;2024-03-23T11:04:42;11.00;99.90
38604;DHT22;24924;50.054;8.790;2024-03-23T11:07:33;10.80;99.90
38604;DHT22;24924;50.054;8.790;2024-03-23T11:10:27;10.40;99.90
38604;DHT22;24924;50.054;8.790;2024-03-23T11:13:22;9.20;99.90
38604;DHT22;24924;50.054;8.790;2024-03-23T11:16:27;8.40;99.90
38604;DHT22;24924;50.054;8.790;2024-03-23T11:19:37;7.80;99.90
38604;DHT22;24924;50.054;8.790;2024-03-23T11:25:26;7.20;99.90
38604;DHT22;24924;50.054;8.790;2024-03-23T11:28:13;7.10;99.90
38604;DHT22;24924;50.054;8.790;2024-03-23T11:31:00;7.10;99.90
38604;DHT22;24924;50.054;8.790;2024-03-23T11:33:47;7.20;99.90
38604;DHT22;24924;50.054;8.790;2024-03-23T11:36:33;7.20;99.90
38604;DHT22;24924;50.054;8.790;2024-03-23T11:39:20;7.30;99.90
38604;DHT22;24924;50.054;8.790;2024-03-23T11:42:06;7.20;99.90
38604;DHT22;24924;50.054;8.790;2024-03-23T11:44:52;7.30;99.90
38604;DHT22;24924;50.054;8.790;2024-03-23T11:47:38;7.50;99.90
38604;DHT22;24924;50.054;8.790;2024-03-23T11:50:24;7.70;99.90
38604;DHT22;24924;50.054;8.790;2024-03-23T11:53:14;7.70;99.90
38604;DHT22;24924;50.054;8.790;2024-03-23T11:56:00;7.80;99.90
38604;DHT22;24924;50.054;8.790;2024-03-23T11:58:49;7.60;99.90
38604;DHT22;24924;50.054;8.790;2024-03-23T12:01:37;7.70;99.90
38604;DHT22;24924;50.054;8.790;2024-03-23T12:04:29;7.90;99.90
38604;DHT22;24924;50.054;8.790;2024-03-23T12:07:20;8.50;99.90
38604;DHT22;24924;50.054;8.790;2024-03-23T12:10:07;9.70;99.90
38604;DHT22;24924;50.054;8.790;2024-03-23T12:13:03;10.40;99.90
38604;DHT22;24924;50.054;8.790;2024-03-23T12:15:52;11.10;99.90
38604;DHT22;24924;50.054;8.790;2024-03-23T12:18:40;12.00;99.90
38604;DHT22;24924;50.054;8.790;2024-03-23T12:21:26;13.00;99.90
38604;DHT22;24924;50.054;8.790;2024-03-23T12:24:12;13.50;98.30
38604;DHT22;24924;50.054;8.790;2024-03-23T12:27:05;14.00;98.30
38604;DHT22;24924;50.054;8.790;2024-03-23T12:29:51;13.90;97.80
38604;DHT22;24924;50.054;8.790;2024-03-23T12:32:37;14.00;97.40
38604;DHT22;24924;50.054;8.790;2024-03-23T12:35:23;14.00;96.90
38604;DHT22;24924;50.054;8.790;2024-03-23T12:38:09;14.30;97.10
38604;DHT22;24924;50.054;8.790;2024-03-23T12:40:55;14.70;95.50
38604;DHT22;24924;50.054;8.790;2024-03-23T12:43:41;14.30;95.60
38604;DHT22;24924;50.054;8.790;2024-03-23T12:46:27;14.50;95.00
38604;DHT22;24924;50.054;8.790;2024-03-23T12:49:13;14.30;95.40
38604;DHT22;24924;50.054;8.790;2024-03-23T12:51:59;13.30;96.20
38604;DHT22;24924;50.054;8.790;2024-03-23T12:54:45;14.10;96.30
38604;DHT22;24924;50.054;8.790;2024-03-23T12:57:32;14.50;95.50
38604;DHT22;24924;50.054;8.790;2024-03-23T13:00:18;14.80;95.50
38604;DHT22;24924;50.054;8.790;2024-03-23T13:03:06;14.80;95.50
38604;DHT22;24924;50.054;8.790;2024-03-23T13:05:52;14.50;95.50
38604;DHT22;24924;50.054;8.790;2024-03-23T13:08:38;14.30;96.00
38604;DHT22;24924;50.054;8.790;2024-03-23T13:11:24;13.50;96.50
38604;DHT22;24924;50.054;8.790;2024-03-23T13:14:11;12.70;97.50
38604;DHT22;24924;50.054;8.790;2024-03-23T13:17:00;12.20;97.20
38604;DHT22;24924;50.054;8.790;2024-03-23T13:19:47;11.70;97.90
38604;DHT22;24924;50.054;8.790;2024-03-23T13:22:33;11.60;97.50
38604;DHT22;24924;50.054;8.790;2024-03-23T13:25:19;11.30;98.20
38604;DHT22;24924;50.054;8.790;2024-03-23T13:28:06;10.50;99.90
38604;DHT22;24924;50.054;8.790;2024-03-23T13:30:56;9.60;99.90
38604;DHT22;24924;50.054;8.790;2024-03-23T13:33:42;8.50;99.90
38604;DHT22;24924;50.054;8.790;2024-03-23T13:36:29;7.30;99.90
38604;DHT22;24924;50.054;8.790;2024-03-23T13:39:16;6.70;99.90
38604;DHT22;24924;50.054;8.790;2024-03-23T13:42:02;6.50;99.90
38604;DHT22;24924;50.054;8.790;2024-03-23T13:44:49;6.40;99.90
38604;DHT22;24924;50.054;8.790;2024-03-23T13:47:36;6.50;99.90
38604;DHT22;24924;50.054;8.790;2024-03-23T13:50:22;6.80;99.90
38604;DHT22;24924;50.054;8.790;2024-03-23T13:53:08;7.10;99.90
38604;DHT22;24924;50.054;8.790;2024-03-23T13:55:54;7.60;99.90
38604;DHT22;24924;50.054;8.790;2024-03-23T13:58:41;8.10;99.90
38604;DHT22;24924;50.054;8.790;2024-03-23T14:01:31;8.30;99.90
38604;DHT22;24924;50.054;8.790;2024-03-23T14:04:18;9.40;99.90
38604;DHT22;24924;50.054;8.790;2024-03-23T14:07:06;10.90;99.90
38604;DHT22;24924;50.054;8.790;2024-03-23T14:09:53;12.30;99.90
38604;DHT22;24924;50.054;8.790;2024-03-23T14:12:41;13.00;99.90
38604;DHT22;24924;50.054;8.790;2024-03-23T14:15:27;13.00;99.90
38604;DHT22;24924;50.054;8.790;2024-03-23T14:18:13;12.30;99.90
38604;DHT22;24924;50.054;8.790;2024-03-23T14:21:00;11.90;99.90
38604;DHT22;24924;50.054;8.790;2024-03-23T14:23:47;11.60;99.90
38604;DHT22;24924;50.054;8.790;2024-03-23T14:26:33;10.60;99.90
38604;DHT22;24924;50.054;8.790;2024-03-23T14:29:19;10.00;99.90
38604;DHT22;24924;50.054;8.790;2024-03-23T14:32:05;10.10;99.90
38604;DHT22;24924;50.054;8.790;2024-03-23T14:34:51;9.90;99.90
38604;DHT22;24924;50.054;8.790;2024-03-23T14:37:40;10.10;99.90
38604;DHT22;24924;50.054;8.790;2024-03-23T14:40:28;11.30;99.90
38604;DHT22;24924;50.054;8.790;2024-03-23T14:43:14;11.90;99.90
38604;DHT22;24924;50.054;8.790;2024-03-23T14:48:53;11.20;99.90
38604;DHT22;24924;50.054;8.790;2024-03-23T14:51:40;10.50;99.90
38604;DHT22;24924;50.054;8.790;2024-03-23T14:54:26;10.10;99.90
38604;DHT22;24924;50.054;8.790;2024-03-23T14:57:12;10.10;99.90
38604;DHT22;24924;50.054;8.790;2024-03-23T14:59:58;9.60;99.90
38604;DHT22;24924;50.054;8.790;2024-03-23T15:02:44;9.60;99.90
38604;DHT22;24924;50.054;8.790;2024-03-23T15:05:31;9.60;99.90
38604;DHT22;24924;50.054;8.790;2024-03-23T15:08:17;10.20;99.90
38604;DHT22;24924;50.054;8.790;2024-03-23T15:11:03;10.00;99.90
38604;DHT22;24924;50.054;8.790;2024-03-23T15:13:51;9.80;99.90
38604;DHT22;24924;50.054;8.790;2024-03-23T15:16:37;9.60;99.90
38604;DHT22;24924;50.054;8.790;2024-03-23T15:19:23;9.70;99.90
38604;DHT22;24924;50.054;8.790;2024-03-23T15:22:09;9.60;99.90
38604;DHT22;24924;50.054;8.790;2024-03-23T15:24:56;9.70;99.90
38604;DHT22;24924;50.054;8.790;2024-03-23T15:27:42;9.60;99.90
38604;DHT22;24924;50.054;8.790;2024-03-23T15:30:28;9.70;99.90
38604;DHT22;24924;50.054;8.790;2024-03-23T15:33:15;9.50;99.90
38604;DHT22;24924;50.054;8.790;2024-03-23T15:36:02;9.60;99.90
38604;DHT22;24924;50.054;8.790;2024-03-23T15:38:49;9.50;99.90
38604;DHT22;24924;50.054;8.790;2024-03-23T15:41:35;9.50;99.90
38604;DHT22;24924;50.054;8.790;2024-03-23T15:44:21;9.50;99.90
38604;DHT22;24924;50.054;8.790;2024-03-23T15:47:08;9.50;99.90
38604;DHT22;24924;50.054;8.790;2024-03-23T15:49:54;9.40;99.90
38604;DHT22;24924;50.054;8.790;2024-03-23T15:52:41;9.30;99.90
38604;DHT22;24924;50.054;8.790;2024-03-23T15:55:27;9.30;99.90
38604;DHT22;24924;50.054;8.790;2024-03-23T15:58:16;9.40;99.90
38604;DHT22;24924;50.054;8.790;2024-03-23T16:01:07;9.50;99.90
38604;DHT22;24924;50.054;8.790;2024-03-23T16:03:59;9.10;99.90
38604;DHT22;24924;50.054;8.790;2024-03-23T16:06:46;8.20;99.90
38604;DHT22;24924;50.054;8.790;2024-03-23T16:09:32;8.10;99.90
38604;DHT22;24924;50.054;8.790;2024-03-23T16:12:18;8.00;99.90
38604;DHT22;24924;50.054;8.790;2024-03-23T16:15:04;7.90;99.90
38604;DHT22;24924;50.054;8.790;2024-03-23T16:17:51;7.60;99.90
38604;DHT22;24924;50.054;8.790;2024-03-23T16:20:37;7.50;99.90
38604;DHT22;24924;50.054;8.790;2024-03-23T16:23:24;7.50;99.90
38604;DHT22;24924;50.054;8.790;2024-03-23T16:26:10;7.50;99.90
38604;DHT22;24924;50.054;8.790;2024-03-23T16:28:58;7.50;99.90
38604;DHT22;24924;50.054;8.790;2024-03-23T16:31:44;7.40;99.90
38604;DHT22;24924;50.054;8.790;2024-03-23T16:34:30;7.50;99.90
38604;DHT22;24924;50.054;8.790;2024-03-23T16:37:16;7.20;99.90
38604;DHT22;24924;50.054;8.790;2024-03-23T16:40:03;7.20;99.90
38604;DHT22;24924;50.054;8.790;2024-03-23T16:42:49;7.20;99.90
38604;DHT22;24924;50.054;8.790;2024-03-23T16:45:35;7.10;99.90
38604;DHT22;24924;50.054;8.790;2024-03-23T16:48:23;7.10;99.90
38604;DHT22;24924;50.054;8.790;2024-03-23T16:51:11;7.20;99.90
38604;DHT22;24924;50.054;8.790;2024-03-23T16:53:58;7.20;99.90
38604;DHT22;24924;50.054;8.790;2024-03-23T16:56:45;7.20;99.90
38604;DHT22;24924;50.054;8.790;2024-03-23T16:59:31;7.30;99.90
38604;DHT22;24924;50.054;8.790;2024-03-23T17:02:17;7.20;99.90
38604;DHT22;24924;50.054;8.790;2024-03-23T17:05:03;7.10;99.90
38604;DHT22;24924;50.054;8.790;2024-03-23T17:07:50;7.00;99.90
38604;DHT22;24924;50.054;8.790;2024-03-23T17:10:36;7.10;99.90
38604;DHT22;24924;50.054;8.790;2024-03-23T17:13:22;7.00;99.90
38604;DHT22;24924;50.054;8.790;2024-03-23T17:16:08;6.90;99.90
38604;DHT22;24924;50.054;8.790;2024-03-23T17:18:56;6.90;99.90
38604;DHT22;24924;50.054;8.790;2024-03-23T17:21:42;6.80;99.90
38604;DHT22;24924;50.054;8.790;2024-03-23T17:24:29;6.70;99.90
38604;DHT22;24924;50.054;8.790;2024-03-23T17:27:15;6.80;99.90
38604;DHT22;24924;50.054;8.790;2024-03-23T17:30:01;6.80;99.90
38604;DHT22;24924;50.054;8.790;2024-03-23T17:32:47;6.80;99.90
38604;DHT22;24924;50.054;8.790;2024-03-23T17:35:33;6.70;99.90
38604;DHT22;24924;50.054;8.790;2024-03-23T17:38:19;6.70;99.90
38604;DHT22;24924;50.054;8.790;2024-03-23T17:41:06;6.70;99.90
38604;DHT22;24924;50.054;8.790;2024-03-23T17:43:52;6.60;99.90
38604;DHT22;24924;50.054;8.790;2024-03-23T17:46:38;6.60;99.90
38604;DHT22;24924;50.054;8.790;2024-03-23T17:49:24;6.60;99.90
38604;DHT22;24924;50.054;8.790;2024-03-23T17:52:10;6.60;99.90
38604;DHT22;24924;50.054;8.790;2024-03-23T17:54:56;6.70;99.90
38604;DHT22;24924;50.054;8.790;2024-03-23T17:57:43;6.80;99.90
38604;DHT22;24924;50.054;8.790;2024-03-23T18:00:29;6.70;99.90
38604;DHT22;24924;50.054;8.790;2024-03-23T18:03:15;6.80;99.90
38604;DHT22;24924;50.054;8.790;2024-03-23T18:06:01;6.80;99.90
38604;DHT22;24924;50.054;8.790;2024-03-23T18:08:47;6.80;99.90
38604;DHT22;24924;50.054;8.790;2024-03-23T18:11:34;6.80;99.90
38604;DHT22;24924;50.054;8.790;2024-03-23T18:14:20;6.70;99.90
38604;DHT22;24924;50.054;8.790;2024-03-23T18:17:06;6.60;99.90
38604;DHT22;24924;50.054;8.790;2024-03-23T18:19:52;6.40;99.90
38604;DHT22;24924;50.054;8.790;2024-03-23T18:22:38;6.20;99.90
38604;DHT22;24924;50.054;8.790;2024-03-23T18:25:24;6.20;99.90
38604;DHT22;24924;50.054;8.790;2024-03-23T18:28:10;6.10;99.90
38604;DHT22;24924;50.054;8.790;2024-03-23T18:31:00;6.20;99.90
38604;DHT22;24924;50.054;8.790;2024-03-23T18:33:46;6.10;99.90
38604;DHT22;24924;50.054;8.790;2024-03-23T18:36:33;6.10;99.90
38604;DHT22;24924;50.054;8.790;2024-03-23T18:39:20;6.10;99.90
38604;DHT22;24924;50.054;8.790;2024-03-23T18:42:06;6.20;99.90
38604;DHT22;24924;50.054;8.790;2024-03-23T18:44:53;6.20;99.90
38604;DHT22;24924;50.054;8.790;2024-03-23T18:47:39;6.20;99.90